Time;durP1;ratioP1;P1;durP2;ratioP2;P2;SDS_P1;SDS_P2;PMS_P1;PMS_P2;Temp;Humidity;BMP_temperature;BMP_pressure;BME280_temperature;BME280_humidity;BME280_pressure;Samples;Min_cycle;Max_cycle;Signal;HPM_P1;HPM_P2
2022/11/21 00:01:17;;;;;;;17.23;11.10;;;;;;;;;;4405258;32;20321;-81
2022/11/21 00:03:44;;;;;;;19.77;12.27;;;;;;;;;;4405588;32;20253;-85
2022/11/21 00:06:11;;;;;;;17.13;12.53;;;;;;;;;;4405301;32;20287;-82
2022/11/21 00:08:37;;;;;;;18.63;13.37;;;;;;;;;;4405524;32;20238;-82
2022/11/21 00:11:04;;;;;;;16.93;12.40;;;;;;;;;;4405073;32;20313;-84
2022/11/21 00:13:31;;;;;;;17.00;11.87;;;;;;;;;;4405421;32;20261;-85
2022/11/21 00:16:04;;;;;;;16.63;11.83;;;;;;;;;;4405247;32;20308;-84
2022/11/21 00:18:32;;;;;;;11.90;9.87;;;;;;;;;;4405604;32;20758;-85
2022/11/21 00:21:04;;;;;;;17.90;11.00;;;;;;;;;;4405123;32;20229;-83
2022/11/21 00:23:30;;;;;;;14.77;9.23;;;;;;;;;;4405525;32;20233;-85
2022/11/21 00:25:57;;;;;;;16.03;10.13;;;;;;;;;;4405079;32;20689;-84
2022/11/21 00:28:24;;;;;;;14.37;9.87;;;;;;;;;;4405071;32;20272;-84
2022/11/21 00:30:50;;;;;;;19.90;9.90;;;;;;;;;;4405089;32;20225;-86
2022/11/21 00:33:18;;;;;;;13.67;8.50;;;;;;;;;;4404733;32;20306;-86
2022/11/21 00:35:45;;;;;;;13.00;9.50;;;;;;;;;;4404857;32;20217;-83
2022/11/21 00:38:12;;;;;;;11.37;8.00;;;;;;;;;;4405775;32;20908;-83
2022/11/21 00:40:39;;;;;;;10.43;8.03;;;;;;;;;;4404958;32;20339;-83
2022/11/21 00:43:05;;;;;;;14.67;8.50;;;;;;;;;;4404827;32;20221;-85
2022/11/21 00:45:32;;;;;;;17.50;9.50;;;;;;;;;;4404750;32;20264;-84
2022/11/21 00:47:59;;;;;;;12.43;8.17;;;;;;;;;;4404722;32;20719;-83
2022/11/21 00:50:27;;;;;;;13.13;8.13;;;;;;;;;;4404535;32;20241;-85
2022/11/21 00:52:56;;;;;;;12.33;7.43;;;;;;;;;;4404880;32;20241;-83
2022/11/21 00:55:22;;;;;;;12.33;6.80;;;;;;;;;;4405118;32;20260;-83
2022/11/21 00:57:49;;;;;;;14.27;6.90;;;;;;;;;;4404978;32;20229;-85
2022/11/21 01:00:17;;;;;;;13.33;6.77;;;;;;;;;;4391839;32;20299;-85
2022/11/21 01:02:44;;;;;;;14.73;5.90;;;;;;;;;;4389425;32;20298;-83
2022/11/21 01:05:11;;;;;;;14.25;6.03;;;;;;;;;;4389756;32;20237;-83
2022/11/21 01:07:39;;;;;;;12.17;5.53;;;;;;;;;;4389690;32;20315;-85
2022/11/21 01:10:07;;;;;;;13.02;5.30;;;;;;;;;;4394641;32;20264;-85
2022/11/21 01:12:33;;;;;;;14.77;5.77;;;;;;;;;;4403373;32;20282;-85
2022/11/21 01:15:00;;;;;;;9.83;4.37;;;;;;;;;;4404877;32;20279;-83
2022/11/21 01:17:27;;;;;;;12.47;3.97;;;;;;;;;;4404888;32;20279;-83
2022/11/21 01:19:53;;;;;;;10.83;5.20;;;;;;;;;;4404355;32;20232;-85
2022/11/21 01:22:20;;;;;;;9.13;5.07;;;;;;;;;;4404130;32;20247;-84
2022/11/21 01:24:48;;;;;;;8.80;3.60;;;;;;;;;;4404826;32;20775;-83
2022/11/21 01:27:15;;;;;;;9.67;4.60;;;;;;;;;;4404128;32;20230;-84
2022/11/21 01:29:42;;;;;;;9.67;4.13;;;;;;;;;;4404145;32;20245;-83
2022/11/21 01:32:08;;;;;;;9.00;4.70;;;;;;;;;;4404347;32;20229;-83
2022/11/21 01:34:35;;;;;;;19.00;6.93;;;;;;;;;;4404577;32;20307;-83
2022/11/21 01:37:02;;;;;;;15.30;6.07;;;;;;;;;;4403860;32;20230;-83
2022/11/21 01:39:28;;;;;;;13.83;6.07;;;;;;;;;;4404193;32;20286;-85
2022/11/21 01:41:57;;;;;;;11.03;4.93;;;;;;;;;;4396761;32;20233;-86
2022/11/21 01:44:26;;;;;;;10.30;4.70;;;;;;;;;;4388922;32;20262;-85
2022/11/21 01:46:53;;;;;;;14.27;5.07;;;;;;;;;;4389014;32;20276;-84
2022/11/21 01:49:23;;;;;;;8.40;4.30;;;;;;;;;;4388849;32;20316;-85
2022/11/21 01:51:53;;;;;;;5.50;3.60;;;;;;;;;;4391580;32;20271;-85
2022/11/21 01:54:24;;;;;;;7.13;4.00;;;;;;;;;;4404385;32;20786;-85
2022/11/21 01:56:56;;;;;;;11.23;5.07;;;;;;;;;;4411181;32;20287;-84
2022/11/21 01:59:29;;;;;;;8.43;4.57;;;;;;;;;;4403722;32;20298;-85
2022/11/21 02:01:58;;;;;;;11.93;5.30;;;;;;;;;;4403991;32;20221;-85
2022/11/21 02:04:28;;;;;;;10.63;5.40;;;;;;;;;;4404011;32;20234;-85
2022/11/21 02:06:54;;;;;;;10.20;5.13;;;;;;;;;;4403806;32;20226;-83
2022/11/21 02:09:22;;;;;;;9.43;4.30;;;;;;;;;;4403759;32;20241;-85
2022/11/21 02:11:52;;;;;;;13.20;5.60;;;;;;;;;;4404700;32;20237;-85
2022/11/21 02:14:19;;;;;;;9.00;5.83;;;;;;;;;;4406723;32;20233;-84
2022/11/21 02:16:47;;;;;;;11.00;6.63;;;;;;;;;;4416318;32;20292;-83
2022/11/21 02:19:29;;;;;;;14.33;9.07;;;;;;;;;;4420807;32;20197;-83
2022/11/21 02:22:02;;;;;;;14.93;7.93;;;;;;;;;;4415339;32;20318;-85
2022/11/21 02:24:36;;;;;;;19.17;9.67;;;;;;;;;;4407319;32;20633;-86
2022/11/21 02:27:05;;;;;;;21.57;8.33;;;;;;;;;;4406527;32;20236;-83
2022/11/21 02:29:32;;;;;;;12.90;7.73;;;;;;;;;;4403480;32;20559;-85
2022/11/21 02:32:00;;;;;;;16.43;7.70;;;;;;;;;;4403360;32;20283;-85
2022/11/21 02:34:26;;;;;;;13.18;6.78;;;;;;;;;;4403686;32;20241;-83
2022/11/21 02:36:53;;;;;;;14.17;5.37;;;;;;;;;;4403036;32;20691;-85
2022/11/21 02:39:23;;;;;;;16.97;6.60;;;;;;;;;;4403241;32;20261;-83
2022/11/21 02:41:57;;;;;;;11.33;5.67;;;;;;;;;;4403307;32;20280;-82
2022/11/21 02:44:30;;;;;;;10.20;4.87;;;;;;;;;;4403471;32;20233;-82
2022/11/21 02:46:56;;;;;;;15.63;6.30;;;;;;;;;;4403378;32;20222;-84
2022/11/21 02:49:40;;;;;;;7.10;4.87;;;;;;;;;;4403013;32;20636;-83
2022/11/21 02:52:06;;;;;;;11.63;6.70;;;;;;;;;;4403159;32;20319;-84
2022/11/21 02:54:33;;;;;;;9.57;5.27;;;;;;;;;;4403409;32;20244;-85
2022/11/21 02:57:00;;;;;;;14.63;6.50;;;;;;;;;;4402962;32;20268;-85
2022/11/21 02:59:28;;;;;;;7.97;5.53;;;;;;;;;;4402976;32;20770;-83
2022/11/21 03:01:58;;;;;;;14.73;6.10;;;;;;;;;;4402812;32;20672;-85
2022/11/21 03:04:25;;;;;;;10.20;5.30;;;;;;;;;;4403193;32;20251;-84
2022/11/21 03:06:52;;;;;;;5.60;4.27;;;;;;;;;;4403327;32;20233;-83
2022/11/21 03:09:18;;;;;;;12.50;4.90;;;;;;;;;;4402713;32;20236;-84
2022/11/21 03:11:45;;;;;;;8.90;4.03;;;;;;;;;;4403084;32;20953;-83
2022/11/21 03:14:12;;;;;;;9.40;4.80;;;;;;;;;;4403094;32;20265;-85
2022/11/21 03:16:40;;;;;;;16.03;5.47;;;;;;;;;;4402730;32;20264;-84
2022/11/21 03:19:07;;;;;;;16.03;6.47;;;;;;;;;;4402661;32;20701;-85
2022/11/21 03:21:34;;;;;;;14.17;6.83;;;;;;;;;;4402436;32;20221;-84
2022/11/21 03:24:00;;;;;;;10.83;5.70;;;;;;;;;;4402879;32;20245;-84
2022/11/21 03:26:27;;;;;;;11.60;5.90;;;;;;;;;;4402576;32;20629;-84
2022/11/21 03:28:54;;;;;;;14.63;7.90;;;;;;;;;;4402535;32;20287;-85
2022/11/21 03:31:21;;;;;;;15.30;7.93;;;;;;;;;;4402816;32;20314;-83
2022/11/21 03:33:49;;;;;;;15.10;7.63;;;;;;;;;;4398747;32;20241;-83
2022/11/21 03:36:16;;;;;;;16.73;8.20;;;;;;;;;;4387168;32;20233;-85
2022/11/21 03:38:42;;;;;;;10.20;6.17;;;;;;;;;;4387703;32;20241;-85
2022/11/21 03:41:28;;;;;;;17.40;6.77;;;;;;;;;;4388158;32;20316;-85
2022/11/21 03:43:54;;;;;;;10.00;5.23;;;;;;;;;;4387644;32;20252;-85
2022/11/21 03:46:21;;;;;;;11.17;5.63;;;;;;;;;;4387356;32;20242;-85
2022/11/21 03:48:49;;;;;;;17.03;7.07;;;;;;;;;;4409255;32;20305;-83
2022/11/21 03:51:16;;;;;;;21.10;8.33;;;;;;;;;;4417828;32;20666;-85
2022/11/21 03:53:43;;;;;;;20.73;9.23;;;;;;;;;;4402658;32;20279;-83
2022/11/21 03:56:10;;;;;;;21.23;8.80;;;;;;;;;;4403074;32;20403;-83
2022/11/21 03:58:37;;;;;;;15.87;6.30;;;;;;;;;;4402404;32;20259;-85
2022/11/21 04:01:04;;;;;;;18.07;6.00;;;;;;;;;;4402464;32;20286;-85
2022/11/21 04:03:31;;;;;;;9.40;3.93;;;;;;;;;;4402532;32;20237;-83
2022/11/21 04:05:59;;;;;;;11.07;4.77;;;;;;;;;;4402239;32;20249;-83
2022/11/21 04:08:26;;;;;;;14.60;6.20;;;;;;;;;;4402685;32;20289;-85
2022/11/21 04:10:54;;;;;;;12.37;5.03;;;;;;;;;;4402148;32;20238;-85
2022/11/21 04:13:21;;;;;;;11.43;5.43;;;;;;;;;;4402395;32;20616;-84
2022/11/21 04:15:48;;;;;;;18.27;4.40;;;;;;;;;;4402620;32;20283;-83
2022/11/21 04:18:15;;;;;;;14.07;6.17;;;;;;;;;;4402319;32;20244;-82
2022/11/21 04:20:42;;;;;;;14.07;6.83;;;;;;;;;;4402245;32;20791;-86
2022/11/21 04:23:10;;;;;;;17.30;6.80;;;;;;;;;;4402291;32;20248;-85
2022/11/21 04:25:37;;;;;;;19.27;6.20;;;;;;;;;;4402363;32;20295;-84
2022/11/21 04:28:04;;;;;;;7.53;4.97;;;;;;;;;;4402217;32;20302;-85
2022/11/21 04:30:33;;;;;;;11.93;5.97;;;;;;;;;;4396106;32;20318;-83
2022/11/21 04:33:00;;;;;;;15.00;6.80;;;;;;;;;;4387273;32;20289;-85
2022/11/21 04:35:27;;;;;;;13.23;6.03;;;;;;;;;;4386739;32;20327;-82
2022/11/21 04:37:54;;;;;;;11.87;5.63;;;;;;;;;;4386893;32;20217;-82
2022/11/21 04:40:22;;;;;;;15.33;6.43;;;;;;;;;;4386962;32;20339;-85
2022/11/21 04:42:48;;;;;;;9.57;6.27;;;;;;;;;;4387336;32;20249;-85
2022/11/21 04:45:17;;;;;;;7.93;5.40;;;;;;;;;;4399510;32;20685;-83
2022/11/21 04:47:45;;;;;;;15.30;7.47;;;;;;;;;;4404983;32;20629;-84
2022/11/21 04:50:14;;;;;;;18.33;8.60;;;;;;;;;;4404466;32;20320;-84
2022/11/21 04:52:42;;;;;;;34.73;14.80;;;;;;;;;;4404825;32;20291;-82
2022/11/21 04:55:10;;;;;;;31.10;13.63;;;;;;;;;;4405136;32;20273;-84
2022/11/21 04:57:38;;;;;;;23.60;10.90;;;;;;;;;;4405276;32;20713;-84
2022/11/21 05:00:05;;;;;;;23.23;10.50;;;;;;;;;;4404598;32;20244;-83
2022/11/21 05:02:33;;;;;;;20.27;8.87;;;;;;;;;;4405079;32;20224;-83
2022/11/21 05:04:59;;;;;;;16.73;10.30;;;;;;;;;;4404776;32;20233;-81
2022/11/21 05:07:26;;;;;;;13.97;8.77;;;;;;;;;;4404992;32;20342;-84
2022/11/21 05:09:53;;;;;;;15.77;7.20;;;;;;;;;;4405612;32;20286;-82
2022/11/21 05:15:06;;;;;;;16.30;7.33;;;;;;;;;;4404371;32;20307;-82
2022/11/21 05:17:33;;;;;;;20.80;7.23;;;;;;;;;;4404401;32;20283;-83
2022/11/21 05:20:00;;;;;;;17.97;8.60;;;;;;;;;;4404112;32;20652;-84
2022/11/21 05:22:27;;;;;;;17.33;8.90;;;;;;;;;;4404323;32;20225;-82
2022/11/21 05:24:54;;;;;;;19.77;7.97;;;;;;;;;;4404727;32;20640;-83
2022/11/21 05:27:20;;;;;;;16.63;6.60;;;;;;;;;;4404291;32;20291;-85
2022/11/21 05:29:47;;;;;;;15.57;6.43;;;;;;;;;;4404270;32;20311;-84
2022/11/21 05:32:15;;;;;;;12.97;5.93;;;;;;;;;;4404706;32;20233;-84
2022/11/21 05:34:42;;;;;;;18.23;6.27;;;;;;;;;;4403542;32;20806;-85
2022/11/21 05:37:09;;;;;;;14.60;6.50;;;;;;;;;;4404086;32;20221;-85
2022/11/21 05:39:35;;;;;;;11.73;5.53;;;;;;;;;;4403741;32;20230;-83
2022/11/21 05:42:02;;;;;;;11.93;5.57;;;;;;;;;;4403264;32;20240;-85
2022/11/21 05:44:28;;;;;;;11.80;5.83;;;;;;;;;;4397697;32;20262;-85
2022/11/21 05:46:55;;;;;;;14.70;7.23;;;;;;;;;;4403637;32;20253;-82
2022/11/21 05:49:23;;;;;;;20.77;9.37;;;;;;;;;;4403646;32;20313;-85
2022/11/21 05:51:50;;;;;;;26.77;11.17;;;;;;;;;;4403593;32;20783;-83
2022/11/21 05:54:17;;;;;;;12.60;5.73;;;;;;;;;;4403768;32;20298;-83
2022/11/21 05:56:44;;;;;;;16.27;6.37;;;;;;;;;;4403527;32;20310;-85
2022/11/21 05:59:11;;;;;;;11.07;5.13;;;;;;;;;;4403176;32;20320;-83
2022/11/21 06:04:24;;;;;;;12.27;6.07;;;;;;;;;;4404645;32;20253;-84
2022/11/21 06:06:50;;;;;;;17.40;6.40;;;;;;;;;;4403806;32;20365;-82
2022/11/21 06:09:17;;;;;;;17.97;8.50;;;;;;;;;;4402885;32;20237;-86
2022/11/21 06:11:44;;;;;;;16.50;9.30;;;;;;;;;;4391481;32;20329;-83
2022/11/21 06:14:11;;;;;;;20.80;9.43;;;;;;;;;;4390008;32;20325;-84
2022/11/21 06:16:37;;;;;;;12.23;8.27;;;;;;;;;;4388875;32;20717;-82
2022/11/21 06:19:04;;;;;;;19.20;9.43;;;;;;;;;;4389772;32;20231;-81
2022/11/21 06:21:36;;;;;;;21.33;8.10;;;;;;;;;;4400714;32;20222;-82
2022/11/21 06:24:04;;;;;;;13.23;6.70;;;;;;;;;;4392298;32;20234;-83
2022/11/21 06:26:31;;;;;;;15.17;7.80;;;;;;;;;;4394156;32;20273;-82
2022/11/21 06:28:58;;;;;;;19.30;8.17;;;;;;;;;;4381891;32;20888;-84
2022/11/21 06:31:26;;;;;;;19.83;4.30;;;;;;;;;;4384787;32;20568;-82
2022/11/21 06:33:54;;;;;;;13.80;4.97;;;;;;;;;;4377887;32;20326;-86
2022/11/21 06:36:22;;;;;;;19.77;5.53;;;;;;;;;;4375220;32;20619;-84
2022/11/21 06:38:50;;;;;;;10.87;5.03;;;;;;;;;;4387328;32;20308;-83
2022/11/21 06:41:18;;;;;;;17.37;8.80;;;;;;;;;;4386464;32;20269;-86
2022/11/21 06:43:45;;;;;;;14.50;9.37;;;;;;;;;;4386115;32;20249;-85
2022/11/21 06:46:16;;;;;;;11.07;4.20;;;;;;;;;;4387098;32;20315;-82
2022/11/21 06:48:43;;;;;;;11.07;3.00;;;;;;;;;;4387199;32;20252;-81
2022/11/21 06:51:13;;;;;;;7.30;3.23;;;;;;;;;;4386948;32;20361;-83
2022/11/21 06:53:40;;;;;;;18.20;3.37;;;;;;;;;;4372495;32;20345;-82
2022/11/21 06:56:08;;;;;;;8.30;3.03;;;;;;;;;;4378064;32;20240;-82
2022/11/21 06:58:35;;;;;;;10.80;3.00;;;;;;;;;;4402716;32;20240;-80
2022/11/21 07:01:05;;;;;;;6.30;3.03;;;;;;;;;;4402423;32;20255;-77
2022/11/21 07:03:32;;;;;;;8.43;3.80;;;;;;;;;;4402321;32;20252;-81
2022/11/21 07:06:00;;;;;;;13.00;3.27;;;;;;;;;;4402204;32;20754;-81
2022/11/21 07:08:27;;;;;;;9.13;3.80;;;;;;;;;;4392472;32;20465;-80
2022/11/21 07:10:54;;;;;;;15.60;4.93;;;;;;;;;;4387664;32;20255;-79
2022/11/21 07:13:22;;;;;;;15.93;6.33;;;;;;;;;;4387456;32;20654;-82
2022/11/21 07:15:51;;;;;;;12.20;7.13;;;;;;;;;;4387853;32;20229;-81
2022/11/21 07:18:17;;;;;;;13.60;6.60;;;;;;;;;;4371876;32;20576;-82
2022/11/21 07:20:45;;;;;;;5.30;3.77;;;;;;;;;;4385687;32;20230;-79
2022/11/21 07:23:13;;;;;;;6.00;4.03;;;;;;;;;;4385152;32;20288;-79
2022/11/21 07:25:40;;;;;;;4.07;1.70;;;;;;;;;;4385703;32;20221;-80
2022/11/21 07:28:08;;;;;;;5.63;2.13;;;;;;;;;;4390995;32;20279;-81
2022/11/21 07:30:37;;;;;;;8.47;2.97;;;;;;;;;;4401974;32;20527;-83
2022/11/21 07:33:05;;;;;;;20.43;4.03;;;;;;;;;;4395540;32;20230;-82
2022/11/21 07:35:33;;;;;;;9.20;2.33;;;;;;;;;;4401938;32;20314;-80
2022/11/21 07:38:00;;;;;;;5.33;2.73;;;;;;;;;;4401830;32;20661;-83
2022/11/21 07:40:27;;;;;;;6.67;2.60;;;;;;;;;;4401572;32;20294;-81
2022/11/21 07:42:54;;;;;;;4.73;2.57;;;;;;;;;;4401996;32;20327;-82
2022/11/21 07:45:20;;;;;;;5.63;3.07;;;;;;;;;;4402022;32;20465;-80
2022/11/21 07:47:57;;;;;;;12.83;3.77;;;;;;;;;;4401650;32;20287;-83
2022/11/21 07:50:24;;;;;;;7.87;2.80;;;;;;;;;;4402020;32;20660;-78
2022/11/21 07:52:50;;;;;;;5.93;3.70;;;;;;;;;;4397177;32;20308;-81
2022/11/21 07:55:17;;;;;;;5.93;3.60;;;;;;;;;;4402520;32;20278;-82
2022/11/21 07:57:44;;;;;;;8.77;3.43;;;;;;;;;;4401350;32;20310;-82
2022/11/21 08:00:13;;;;;;;12.53;4.63;;;;;;;;;;4401601;32;20303;-82
2022/11/21 08:02:40;;;;;;;9.63;4.33;;;;;;;;;;4401342;32;20214;-83
2022/11/21 08:05:09;;;;;;;6.97;4.30;;;;;;;;;;4395995;32;20640;-82
2022/11/21 08:07:35;;;;;;;9.07;4.33;;;;;;;;;;4402033;32;20222;-82
2022/11/21 08:10:04;;;;;;;5.73;2.67;;;;;;;;;;4401538;32;20709;-80
2022/11/21 08:12:32;;;;;;;7.30;3.07;;;;;;;;;;4401515;32;20293;-82
2022/11/21 08:14:59;;;;;;;3.80;2.70;;;;;;;;;;4398922;32;20246;-82
2022/11/21 08:17:26;;;;;;;5.83;4.03;;;;;;;;;;4386687;32;20221;-82
2022/11/21 08:19:53;;;;;;;18.07;8.50;;;;;;;;;;4386005;32;20233;-84
2022/11/21 08:22:21;;;;;;;6.82;3.85;;;;;;;;;;4389288;32;20250;-82
2022/11/21 08:24:47;;;;;;;5.17;3.97;;;;;;;;;;4389820;32;20685;-79
2022/11/21 08:27:19;;;;;;;7.17;5.63;;;;;;;;;;4389873;32;20291;-79
2022/11/21 08:29:46;;;;;;;5.63;3.60;;;;;;;;;;4395200;32;20234;-82
2022/11/21 08:32:12;;;;;;;4.43;2.83;;;;;;;;;;4389515;32;20291;-79
2022/11/21 08:34:39;;;;;;;4.77;3.27;;;;;;;;;;4388844;32;20253;-80
2022/11/21 08:37:06;;;;;;;4.80;3.87;;;;;;;;;;4389310;32;20225;-85
2022/11/21 08:39:35;;;;;;;11.33;5.00;;;;;;;;;;4389834;32;20317;-81
2022/11/21 08:42:04;;;;;;;12.13;8.37;;;;;;;;;;4388999;32;20686;-83
2022/11/21 08:44:32;;;;;;;4.63;3.20;;;;;;;;;;4389207;32;20381;-80
2022/11/21 08:46:59;;;;;;;6.97;4.27;;;;;;;;;;4389091;32;20636;-79
2022/11/21 08:49:26;;;;;;;7.33;3.50;;;;;;;;;;4387764;32;20283;-78
2022/11/21 08:51:53;;;;;;;5.87;2.63;;;;;;;;;;4391428;32;20233;-79
2022/11/21 08:54:22;;;;;;;5.23;2.23;;;;;;;;;;4402114;32;20745;-80
2022/11/21 08:56:53;;;;;;;3.47;2.53;;;;;;;;;;4404597;32;20610;-82
2022/11/21 08:59:19;;;;;;;8.30;4.93;;;;;;;;;;4404207;32;20238;-82
2022/11/21 09:01:46;;;;;;;7.10;3.77;;;;;;;;;;4404139;32;20629;-80
2022/11/21 09:04:13;;;;;;;6.70;4.00;;;;;;;;;;4403934;32;20229;-79
2022/11/21 09:06:40;;;;;;;5.73;3.43;;;;;;;;;;4404203;32;20618;-78
2022/11/21 09:09:07;;;;;;;5.33;3.00;;;;;;;;;;4404321;32;20649;-81
2022/11/21 09:11:35;;;;;;;8.00;2.87;;;;;;;;;;4404800;32;20281;-84
2022/11/21 09:19:32;;;;;;;5.07;3.13;;;;;;;;;;4403640;32;20271;-82
2022/11/21 09:21:59;;;;;;;3.20;2.50;;;;;;;;;;4402591;32;20297;-79
2022/11/21 09:24:26;;;;;;;4.07;2.80;;;;;;;;;;4390457;32;20264;-80
2022/11/21 09:26:52;;;;;;;3.57;2.60;;;;;;;;;;4418622;32;20240;-78
2022/11/21 09:29:21;;;;;;;6.20;2.70;;;;;;;;;;4405296;32;20312;-79
2022/11/21 09:31:48;;;;;;;4.07;2.90;;;;;;;;;;4403434;32;20217;-78
2022/11/21 09:34:14;;;;;;;5.90;3.07;;;;;;;;;;4403194;32;20237;-79
2022/11/21 09:36:41;;;;;;;8.87;3.27;;;;;;;;;;4403565;32;20327;-82
2022/11/21 09:39:08;;;;;;;6.07;3.13;;;;;;;;;;4403987;32;20802;-81
2022/11/21 09:41:52;;;;;;;2.63;2.00;;;;;;;;;;4403695;32;20259;-83
2022/11/21 09:44:39;;;;;;;5.03;3.33;;;;;;;;;;4403942;32;20723;-80
2022/11/21 09:47:17;;;;;;;4.73;3.00;;;;;;;;;;4403233;32;20214;-79
2022/11/21 09:49:48;;;;;;;7.30;4.07;;;;;;;;;;4403561;32;20256;-79
2022/11/21 09:52:17;;;;;;;5.10;3.53;;;;;;;;;;4403196;32;20229;-81
2022/11/21 09:54:49;;;;;;;3.60;2.10;;;;;;;;;;4399623;32;20253;-80
2022/11/21 09:57:19;;;;;;;7.27;3.73;;;;;;;;;;4387905;32;20534;-86
2022/11/21 09:59:48;;;;;;;5.70;3.13;;;;;;;;;;4387794;32;20439;-80
2022/11/21 10:02:17;;;;;;;6.83;3.77;;;;;;;;;;4403090;32;20217;-77
2022/11/21 10:04:44;;;;;;;4.03;3.20;;;;;;;;;;4402917;32;20298;-78
2022/11/21 10:07:16;;;;;;;5.90;2.90;;;;;;;;;;4403822;32;20273;-79
2022/11/21 10:10:07;;;;;;;3.40;2.30;;;;;;;;;;4415043;32;20241;-81
2022/11/21 10:12:43;;;;;;;7.23;2.07;;;;;;;;;;4401274;32;20595;-80
2022/11/21 10:15:29;;;;;;;6.80;2.87;;;;;;;;;;4402836;32;20628;-81
2022/11/21 10:18:34;;;;;;;9.80;4.00;;;;;;;;;;4402728;32;20208;-80
2022/11/21 10:21:12;;;;;;;4.70;2.40;;;;;;;;;;4371986;32;20374;-84
2022/11/21 10:24:03;;;;;;;5.23;3.10;;;;;;;;;;4390353;32;20242;-84
2022/11/21 10:26:41;;;;;;;3.30;2.07;;;;;;;;;;4397053;32;20241;-81
2022/11/21 10:29:12;;;;;;;6.27;3.00;;;;;;;;;;4408993;32;20301;-80
2022/11/21 10:31:43;;;;;;;3.77;2.00;;;;;;;;;;4410433;32;20249;-82
2022/11/21 10:34:12;;;;;;;3.60;1.97;;;;;;;;;;4410037;32;20233;-80
2022/11/21 10:36:41;;;;;;;2.37;1.40;;;;;;;;;;4404076;32;20302;-81
2022/11/21 10:39:17;;;;;;;4.57;2.37;;;;;;;;;;4402578;32;20544;-77
2022/11/21 10:41:50;;;;;;;3.57;2.00;;;;;;;;;;4401889;32;20253;-81
2022/11/21 10:47:26;;;;;;;2.30;1.53;;;;;;;;;;4401804;32;20263;-78
2022/11/21 10:49:59;;;;;;;1.67;1.30;;;;;;;;;;4402234;32;20266;-80
2022/11/21 10:52:30;;;;;;;2.00;1.53;;;;;;;;;;4402098;32;20279;-82
2022/11/21 10:55:06;;;;;;;1.77;1.63;;;;;;;;;;4403110;32;20257;-80
2022/11/21 10:57:41;;;;;;;2.67;1.50;;;;;;;;;;4401260;32;20296;-83
2022/11/21 11:00:22;;;;;;;4.17;2.30;;;;;;;;;;4402267;32;20877;-79
2022/11/21 11:03:04;;;;;;;3.33;2.00;;;;;;;;;;4402423;32;20712;-80
2022/11/21 11:05:35;;;;;;;4.37;2.33;;;;;;;;;;4388377;32;20283;-79
2022/11/21 11:08:05;;;;;;;2.17;1.70;;;;;;;;;;4387164;32;20342;-85
2022/11/21 11:10:33;;;;;;;4.10;2.00;;;;;;;;;;4386639;32;20256;-81
2022/11/21 11:16:02;;;;;;;5.63;2.17;;;;;;;;;;4387275;32;20241;-80
2022/11/21 11:18:32;;;;;;;5.40;2.23;;;;;;;;;;4395718;32;20340;-81
2022/11/21 11:21:13;;;;;;;3.50;2.47;;;;;;;;;;4401175;32;20670;-81
2022/11/21 11:23:40;;;;;;;6.43;3.30;;;;;;;;;;4376725;32;20229;-81
2022/11/21 11:26:20;;;;;;;7.53;3.80;;;;;;;;;;4371470;32;20391;-83
2022/11/21 11:31:40;;;;;;;6.23;3.03;;;;;;;;;;4382451;32;20271;-82
2022/11/21 11:34:12;;;;;;;4.27;2.00;;;;;;;;;;4385468;32;20260;-82
2022/11/21 11:37:03;;;;;;;2.13;1.70;;;;;;;;;;4386145;32;20234;-84
2022/11/21 11:39:39;;;;;;;3.70;2.23;;;;;;;;;;4386635;32;20291;-81
2022/11/21 11:48:28;;;;;;;6.00;2.13;;;;;;;;;;4375613;32;20276;-83
2022/11/21 11:51:00;;;;;;;2.50;1.33;;;;;;;;;;4386604;32;20734;-82
2022/11/21 11:53:31;;;;;;;2.17;1.90;;;;;;;;;;4386174;32;20305;-81
2022/11/21 11:56:02;;;;;;;4.30;1.60;;;;;;;;;;4386677;32;20217;-82
2022/11/21 11:58:36;;;;;;;2.20;1.90;;;;;;;;;;4389763;32;20276;-82
2022/11/21 12:01:09;;;;;;;3.07;2.00;;;;;;;;;;4389716;32;20275;-81
2022/11/21 12:03:43;;;;;;;3.13;2.10;;;;;;;;;;4389838;32;20727;-82
2022/11/21 12:06:18;;;;;;;4.10;2.50;;;;;;;;;;4391972;32;20209;-82
2022/11/21 12:08:52;;;;;;;3.37;2.20;;;;;;;;;;4390338;32;20283;-81
2022/11/21 12:15:47;;;;;;;3.20;2.50;;;;;;;;;;4390134;32;20247;-81
2022/11/21 12:17:06;;;;;;;4.13;2.37;;;;;;;;;;4389135;32;20320;-81
2022/11/21 12:19:35;;;;;;;5.60;3.40;;;;;;;;;;4389074;32;20301;-81
2022/11/21 12:22:05;;;;;;;5.70;3.77;;;;;;;;;;4389066;32;20232;-82
2022/11/21 12:24:33;;;;;;;4.47;2.87;;;;;;;;;;4389378;32;20259;-81
2022/11/21 12:27:06;;;;;;;4.10;2.83;;;;;;;;;;4389501;32;20634;-81
2022/11/21 12:29:48;;;;;;;5.70;3.90;;;;;;;;;;4389410;32;20316;-81
2022/11/21 12:32:29;;;;;;;5.50;2.80;;;;;;;;;;4389379;32;20226;-81
2022/11/21 12:35:11;;;;;;;11.30;3.93;;;;;;;;;;4390157;32;20213;-82
2022/11/21 12:37:51;;;;;;;4.90;3.00;;;;;;;;;;4390148;32;20229;-81
2022/11/21 12:40:33;;;;;;;6.53;2.87;;;;;;;;;;4390227;32;20214;-82
2022/11/21 12:43:14;;;;;;;9.73;4.33;;;;;;;;;;4389829;32;20303;-82
2022/11/21 12:45:49;;;;;;;6.30;3.70;;;;;;;;;;4389866;32;20229;-81
2022/11/21 12:54:47;;;;;;;9.07;3.47;;;;;;;;;;4347140;32;20256;-83
2022/11/21 12:57:16;;;;;;;10.07;4.07;;;;;;;;;;4383568;32;20225;-82
2022/11/21 12:59:56;;;;;;;5.13;3.33;;;;;;;;;;4389667;32;20469;-82
2022/11/21 13:02:36;;;;;;;7.13;3.27;;;;;;;;;;4389536;32;20296;-82
2022/11/21 13:05:06;;;;;;;5.63;3.80;;;;;;;;;;4389382;32;20308;-82
2022/11/21 13:07:34;;;;;;;3.40;2.37;;;;;;;;;;4389539;32;20359;-83
2022/11/21 13:10:03;;;;;;;4.40;3.83;;;;;;;;;;4392069;32;20260;-82
2022/11/21 13:12:42;;;;;;;2.60;1.97;;;;;;;;;;4405089;32;20218;-83
2022/11/21 13:15:19;;;;;;;3.10;1.93;;;;;;;;;;4404843;32;20293;-82
2022/11/21 13:17:50;;;;;;;3.73;2.70;;;;;;;;;;4404333;32;20573;-81
2022/11/21 13:20:23;;;;;;;4.97;2.83;;;;;;;;;;4404437;32;20577;-82
2022/11/21 13:22:58;;;;;;;3.70;2.30;;;;;;;;;;4390929;32;20230;-83
2022/11/21 13:25:46;;;;;;;9.77;3.87;;;;;;;;;;4374255;32;20229;-83
2022/11/21 13:28:33;;;;;;;8.83;3.83;;;;;;;;;;4380999;32;20327;-82
2022/11/21 13:31:02;;;;;;;3.83;2.80;;;;;;;;;;4373837;32;20234;-82
2022/11/21 13:33:51;;;;;;;7.40;2.70;;;;;;;;;;4374550;32;20237;-82
2022/11/21 13:36:39;;;;;;;6.87;4.10;;;;;;;;;;4373833;32;20248;-82
2022/11/21 13:39:36;;;;;;;13.13;7.93;;;;;;;;;;4374172;32;20209;-83
2022/11/21 13:44:54;;;;;;;6.10;5.10;;;;;;;;;;4388938;32;20344;-82
2022/11/21 13:48:04;;;;;;;6.23;2.90;;;;;;;;;;4388729;32;20221;-83
2022/11/21 13:51:02;;;;;;;2.57;2.27;;;;;;;;;;4381867;32;20245;-81
2022/11/21 13:54:00;;;;;;;13.17;5.10;;;;;;;;;;4388624;32;20253;-82
2022/11/21 13:56:35;;;;;;;5.97;4.43;;;;;;;;;;4384919;32;20319;-82
2022/11/21 13:59:17;;;;;;;8.90;5.43;;;;;;;;;;4388899;32;20217;-82
2022/11/21 14:02:11;;;;;;;23.53;18.30;;;;;;;;;;4384228;32;20241;-82
2022/11/21 14:05:11;;;;;;;12.57;8.93;;;;;;;;;;4388690;32;20237;-81
2022/11/21 14:07:39;;;;;;;12.43;6.00;;;;;;;;;;4388444;32;20233;-82
2022/11/21 14:10:19;;;;;;;3.27;2.90;;;;;;;;;;4394521;32;20264;-82
2022/11/21 14:12:49;;;;;;;4.93;3.60;;;;;;;;;;4404376;32;20715;-83
2022/11/21 14:15:29;;;;;;;6.13;4.77;;;;;;;;;;4403365;32;20251;-82
2022/11/21 14:17:58;;;;;;;7.83;4.90;;;;;;;;;;4403054;32;20270;-82
2022/11/21 14:20:26;;;;;;;7.13;4.60;;;;;;;;;;4403471;32;20265;-83
2022/11/21 14:22:57;;;;;;;7.07;5.33;;;;;;;;;;4404197;32;20364;-81
2022/11/21 14:25:28;;;;;;;12.20;6.80;;;;;;;;;;4404872;32;20365;-81
2022/11/21 14:27:56;;;;;;;5.70;4.50;;;;;;;;;;4408557;32;20261;-81
2022/11/21 14:30:33;;;;;;;10.90;6.50;;;;;;;;;;4417377;32;20354;-81
2022/11/21 14:33:26;;;;;;;10.73;6.17;;;;;;;;;;4416777;32;20545;-82
2022/11/21 14:35:55;;;;;;;22.33;13.63;;;;;;;;;;4417072;32;20365;-81
2022/11/21 14:38:23;;;;;;;21.47;15.80;;;;;;;;;;4411834;32;20282;-82
2022/11/21 14:40:50;;;;;;;18.10;13.70;;;;;;;;;;4403079;32;20265;-80
2022/11/21 14:43:31;;;;;;;9.93;8.60;;;;;;;;;;4403272;32;20286;-81
2022/11/21 14:46:00;;;;;;;9.73;7.50;;;;;;;;;;4402749;32;20714;-82
2022/11/21 14:48:28;;;;;;;12.93;8.30;;;;;;;;;;4402278;32;20259;-82
2022/11/21 14:50:57;;;;;;;13.30;9.93;;;;;;;;;;4387951;32;20270;-81
2022/11/21 14:53:25;;;;;;;11.63;8.90;;;;;;;;;;4401038;32;20266;-82
2022/11/21 14:55:52;;;;;;;9.13;7.63;;;;;;;;;;4403414;32;20230;-82
2022/11/21 14:58:21;;;;;;;7.90;6.27;;;;;;;;;;4403316;32;20209;-82
2022/11/21 15:01:05;;;;;;;10.23;6.63;;;;;;;;;;4402744;32;20256;-81
2022/11/21 15:03:32;;;;;;;7.60;6.43;;;;;;;;;;4411025;32;20245;-81
2022/11/21 15:06:00;;;;;;;16.43;14.67;;;;;;;;;;4418059;32;20652;-82
2022/11/21 15:08:27;;;;;;;8.33;6.70;;;;;;;;;;4417869;32;20217;-81
2022/11/21 15:10:56;;;;;;;15.67;9.13;;;;;;;;;;4407393;32;20332;-83
2022/11/21 15:13:29;;;;;;;19.63;11.03;;;;;;;;;;4403055;32;20225;-80
2022/11/21 15:16:00;;;;;;;6.40;4.97;;;;;;;;;;4401925;32;20274;-81
2022/11/21 15:18:30;;;;;;;10.60;5.50;;;;;;;;;;4401825;32;20226;-82
2022/11/21 15:20:59;;;;;;;6.97;5.63;;;;;;;;;;4401443;32;20315;-81
2022/11/21 15:23:28;;;;;;;23.33;20.10;;;;;;;;;;4401548;32;20279;-81
2022/11/21 15:25:56;;;;;;;16.87;13.50;;;;;;;;;;4402128;32;20245;-82
2022/11/21 15:28:23;;;;;;;11.50;8.93;;;;;;;;;;4401974;32;20296;-82
2022/11/21 15:31:14;;;;;;;12.50;7.70;;;;;;;;;;4397714;32;20475;-82
2022/11/21 15:33:59;;;;;;;8.23;5.27;;;;;;;;;;4402433;32;20328;-83